createdAt,value
2019-02-17T00:01:14.735Z,6.68
2019-02-17T00:04:05.041Z,6.60
2019-02-17T00:07:08.013Z,6.62
2019-02-17T00:09:59.041Z,6.58
2019-02-17T00:12:42.064Z,6.65
2019-02-17T00:15:32.438Z,6.69
2019-02-17T00:18:14.894Z,6.73
2019-02-17T00:21:05.281Z,6.74
2019-02-17T00:23:48.153Z,6.84
2019-02-17T00:26:38.526Z,6.90
2019-02-17T00:29:21.383Z,6.86
2019-02-17T00:32:11.707Z,7.02
2019-02-17T00:34:54.907Z,7.12
2019-02-17T00:37:45.221Z,7.19
2019-02-17T00:40:28.072Z,7.23
2019-02-17T00:43:18.335Z,7.26
2019-02-17T00:46:01.500Z,7.28
2019-02-17T00:48:51.827Z,7.34
2019-02-17T00:51:35.027Z,7.38
2019-02-17T00:54:25.396Z,7.42
2019-02-17T00:57:08.792Z,7.47
2019-02-17T00:59:59.195Z,7.58
2019-02-17T01:02:42.049Z,7.63
2019-02-17T01:05:32.431Z,7.73
2019-02-17T01:08:15.807Z,7.84
2019-02-17T01:14:23.956Z,7.94
2019-02-17T01:17:14.350Z,7.90
2019-02-17T01:20:17.610Z,8.01
2019-02-17T01:23:08.117Z,7.96
2019-02-17T01:26:11.267Z,8.01
2019-02-17T01:29:01.679Z,7.89
2019-02-17T01:31:44.754Z,7.89
2019-02-17T01:34:35.107Z,7.92
2019-02-17T01:37:17.943Z,7.79
2019-02-17T01:43:38.266Z,7.86
2019-02-17T01:46:29.461Z,8.03
2019-02-17T01:49:12.193Z,8.16
2019-02-17T01:52:02.548Z,8.21
2019-02-17T01:54:45.225Z,8.22
2019-02-17T01:57:35.628Z,8.13
2019-02-17T02:00:19.122Z,8.08
2019-02-17T02:03:09.542Z,8.11
2019-02-17T02:05:59.966Z,8.15
2019-02-17T02:08:43.060Z,8.17
2019-02-17T02:11:33.472Z,8.12
2019-02-17T02:14:16.793Z,8.12
2019-02-17T02:17:07.191Z,8.05
2019-02-17T02:19:50.238Z,7.98
2019-02-17T02:22:40.633Z,7.91
2019-02-17T02:25:23.498Z,7.88
2019-02-17T02:31:16.061Z,7.84
2019-02-17T02:34:06.482Z,7.81
2019-02-17T02:36:49.487Z,7.83
2019-02-17T02:39:39.902Z,7.99
2019-02-17T02:42:23.158Z,8.02
2019-02-17T02:45:13.531Z,7.79
2019-02-17T02:47:56.944Z,7.66
2019-02-17T02:50:47.349Z,7.54
2019-02-17T02:53:30.136Z,7.49
2019-02-17T02:56:13.224Z,7.37
2019-02-17T02:59:03.622Z,7.30
2019-02-17T03:02:06.437Z,7.22
2019-02-17T03:04:56.887Z,7.16
2019-02-17T03:07:40.173Z,7.16
2019-02-17T03:10:43.937Z,7.21
2019-02-17T03:13:35.223Z,7.17
2019-02-17T03:16:25.684Z,7.28
2019-02-17T03:19:08.481Z,7.42
2019-02-17T03:21:58.878Z,7.45
2019-02-17T03:24:42.407Z,7.47
2019-02-17T03:27:32.837Z,7.48
2019-02-17T03:30:16.295Z,7.52
2019-02-17T03:33:06.762Z,7.44
2019-02-17T03:35:50.107Z,7.36
2019-02-17T03:38:40.468Z,7.42
2019-02-17T03:41:23.220Z,7.31
2019-02-17T03:44:13.615Z,7.46
2019-02-17T03:46:56.882Z,7.32
2019-02-17T03:49:47.232Z,7.32
2019-02-17T03:52:30.635Z,7.31
2019-02-17T03:55:20.936Z,7.19
2019-02-17T03:58:11.223Z,7.08
2019-02-17T04:00:54.035Z,7.00
2019-02-17T04:03:44.353Z,6.95
2019-02-17T04:06:27.820Z,7.00
2019-02-17T04:09:18.125Z,6.89
2019-02-17T04:12:01.436Z,6.97
2019-02-17T04:14:51.726Z,7.00
2019-02-17T04:17:35.136Z,7.08
2019-02-17T04:20:25.555Z,7.10
2019-02-17T04:23:08.580Z,7.09
2019-02-17T04:25:58.977Z,7.10
2019-02-17T04:28:42.366Z,7.09
2019-02-17T04:31:32.893Z,7.00
2019-02-17T04:34:16.117Z,7.05
2019-02-17T04:37:06.552Z,7.06
2019-02-17T04:39:49.220Z,7.11
2019-02-17T04:42:39.548Z,7.11
2019-02-17T04:45:22.707Z,7.06
2019-02-17T04:48:13.078Z,7.05
2019-02-17T04:50:56.248Z,7.14
2019-02-17T04:53:46.632Z,7.21
2019-02-17T04:56:29.490Z,7.24
2019-02-17T04:59:19.893Z,7.24
2019-02-17T05:02:03.015Z,7.23
2019-02-17T05:04:53.383Z,7.21
2019-02-17T05:07:36.842Z,7.26
2019-02-17T05:10:27.259Z,7.21
2019-02-17T05:13:10.104Z,7.26
2019-02-17T05:16:00.464Z,7.22
2019-02-17T05:18:43.993Z,7.24
2019-02-17T05:21:34.379Z,7.16
2019-02-17T05:24:17.747Z,7.25
2019-02-17T05:27:08.093Z,7.30
2019-02-17T05:29:51.522Z,7.36
2019-02-17T05:32:41.929Z,7.37
2019-02-17T05:35:25.197Z,7.38
2019-02-17T05:38:15.593Z,7.33
2019-02-17T05:40:58.339Z,7.33
2019-02-17T05:43:48.736Z,7.22
2019-02-17T05:46:32.321Z,7.14
2019-02-17T05:49:22.690Z,7.06
2019-02-17T05:52:05.813Z,7.12
2019-02-17T05:54:56.172Z,7.20
2019-02-17T05:57:59.415Z,7.31
2019-02-17T06:00:50.097Z,7.43
2019-02-17T06:03:32.795Z,7.51
2019-02-17T06:06:15.667Z,7.57
2019-02-17T06:12:18.551Z,7.68
2019-02-17T06:15:08.204Z,7.69
2019-02-17T06:17:51.729Z,7.69
2019-02-17T06:20:42.119Z,7.73
2019-02-17T06:23:25.458Z,7.80
2019-02-17T06:26:08.284Z,7.81
2019-02-17T06:28:58.667Z,7.80
2019-02-17T06:31:41.349Z,7.85
2019-02-17T06:34:31.769Z,7.93
2019-02-17T06:37:15.116Z,8.00
2019-02-17T06:40:06.201Z,8.05
2019-02-17T06:42:49.154Z,8.18
2019-02-17T06:45:39.577Z,8.15
2019-02-17T06:48:22.128Z,8.18
2019-02-17T06:51:12.490Z,8.11
2019-02-17T06:53:55.746Z,8.04
2019-02-17T06:57:04.962Z,8.00
2019-02-17T06:59:48.125Z,8.04
2019-02-17T07:02:38.497Z,8.05
2019-02-17T07:06:00.447Z,8.11
2019-02-17T07:08:50.757Z,8.30
2019-02-17T07:11:33.552Z,8.57
2019-02-17T07:14:23.925Z,8.70
2019-02-17T07:17:07.394Z,8.91
2019-02-17T07:19:57.732Z,8.94
2019-02-17T07:22:42.337Z,9.03
2019-02-17T07:25:32.726Z,9.07
2019-02-17T07:28:15.379Z,9.19
2019-02-17T07:31:05.805Z,9.48
2019-02-17T07:33:48.975Z,9.81
2019-02-17T07:36:39.364Z,10.25
2019-02-17T07:39:22.636Z,10.75
2019-02-17T07:42:13.096Z,11.42
2019-02-17T07:44:55.920Z,12.11
2019-02-17T07:47:46.249Z,12.51
2019-02-17T07:50:29.613Z,12.77
2019-02-17T07:53:20.043Z,13.01
2019-02-17T07:56:03.296Z,13.51
2019-02-17T07:58:53.669Z,14.25
2019-02-17T08:01:45.068Z,14.89
2019-02-17T08:04:28.572Z,15.73
2019-02-17T08:07:11.809Z,16.31
2019-02-17T08:10:02.201Z,17.10
2019-02-17T08:12:45.353Z,17.61
2019-02-17T08:15:35.820Z,18.30
2019-02-17T08:18:19.205Z,18.75
2019-02-17T08:21:09.658Z,19.59
2019-02-17T08:23:53.150Z,19.94
2019-02-17T08:26:43.554Z,20.29
2019-02-17T08:29:26.971Z,20.19
2019-02-17T08:32:17.416Z,20.05
2019-02-17T08:35:02.545Z,20.10
2019-02-17T08:37:33.910Z,20.15
2019-02-17T08:40:43.355Z,19.46
2019-02-17T08:43:26.679Z,18.02
2019-02-17T08:46:17.084Z,18.18
2019-02-17T08:48:59.994Z,18.52
2019-02-17T08:51:50.410Z,18.31
2019-02-17T08:54:53.438Z,17.49
2019-02-17T08:57:43.830Z,16.78
2019-02-17T09:00:27.216Z,18.23
2019-02-17T09:03:17.596Z,17.73
2019-02-17T09:06:00.807Z,17.77
2019-02-17T09:08:51.253Z,17.68
2019-02-17T09:11:34.104Z,17.31
2019-02-17T09:14:24.547Z,17.46
2019-02-17T09:17:07.768Z,17.47
2019-02-17T09:19:58.230Z,18.16
2019-02-17T09:22:41.136Z,18.23
2019-02-17T09:25:31.582Z,18.47
2019-02-17T09:28:14.982Z,17.98
2019-02-17T09:31:05.471Z,17.89
2019-02-17T09:33:55.883Z,17.48
2019-02-17T09:36:39.136Z,17.15
2019-02-17T09:39:29.561Z,17.83
2019-02-17T09:42:32.563Z,18.48
2019-02-17T09:45:22.964Z,18.40
2019-02-17T09:48:06.155Z,18.52
2019-02-17T09:50:56.592Z,18.23
2019-02-17T09:53:39.397Z,17.94
2019-02-17T09:56:22.371Z,17.87
2019-02-17T09:59:15.426Z,17.84
2019-02-17T10:01:58.868Z,18.28
2019-02-17T10:04:49.319Z,18.57
2019-02-17T10:07:39.719Z,18.02
2019-02-17T10:10:22.590Z,18.59
2019-02-17T10:16:39.863Z,19.31
2019-02-17T10:19:30.235Z,18.82
2019-02-17T10:22:20.715Z,18.76
2019-02-17T10:25:04.049Z,19.07
2019-02-17T10:27:54.485Z,18.94
2019-02-17T10:30:38.062Z,19.14
2019-02-17T10:33:28.446Z,19.27
2019-02-17T10:36:12.053Z,19.49
2019-02-17T10:42:27.965Z,18.65
2019-02-17T10:45:18.399Z,18.30
2019-02-17T10:48:01.344Z,18.33
2019-02-17T10:50:52.395Z,18.28
2019-02-17T10:53:35.520Z,18.46
2019-02-17T10:56:25.898Z,18.04
2019-02-17T10:59:09.355Z,18.35
2019-02-17T11:01:59.759Z,18.48
2019-02-17T11:04:42.839Z,18.32
2019-02-17T11:07:25.704Z,18.13
2019-02-17T11:10:16.165Z,18.23
2019-02-17T11:13:46.998Z,18.44
2019-02-17T11:16:30.355Z,18.27
2019-02-17T11:19:20.723Z,18.35
2019-02-17T11:22:03.290Z,18.20
2019-02-17T11:24:53.675Z,18.52
2019-02-17T11:27:36.246Z,18.66
2019-02-17T11:30:26.670Z,18.58
2019-02-17T11:33:09.694Z,18.54
2019-02-17T11:36:00.181Z,18.99
2019-02-17T11:38:43.431Z,19.07
2019-02-17T11:41:33.812Z,19.42
2019-02-17T11:44:17.147Z,19.39
2019-02-17T11:47:07.594Z,19.60
2019-02-17T11:49:50.634Z,19.49
2019-02-17T11:52:43.188Z,19.50
2019-02-17T11:55:25.759Z,19.53
2019-02-17T11:58:08.402Z,19.61
2019-02-17T12:00:58.801Z,20.16
2019-02-17T12:03:49.223Z,20.10
2019-02-17T12:06:31.829Z,20.33
2019-02-17T12:09:14.884Z,20.34
2019-02-17T12:12:05.255Z,20.20
2019-02-17T12:15:08.353Z,20.25
2019-02-17T12:17:59.389Z,20.27
2019-02-17T12:24:45.916Z,20.03
2019-02-17T12:27:37.388Z,19.93
2019-02-17T12:30:27.735Z,20.04
2019-02-17T12:33:18.272Z,20.18
2019-02-17T12:36:03.414Z,20.33
2019-02-17T12:38:46.101Z,20.66
2019-02-17T12:41:29.010Z,21.08
2019-02-17T12:44:19.375Z,20.45
2019-02-17T12:47:02.733Z,20.52
2019-02-17T12:49:53.079Z,20.30
2019-02-17T12:52:46.521Z,20.55
2019-02-17T12:55:29.070Z,20.89
2019-02-17T12:58:12.203Z,21.05
2019-02-17T13:01:02.635Z,21.45
2019-02-17T13:03:46.127Z,20.95
2019-02-17T13:06:36.511Z,20.63
2019-02-17T13:09:39.147Z,20.46
2019-02-17T13:12:29.530Z,20.44
2019-02-17T13:15:13.799Z,20.77
2019-02-17T13:18:04.165Z,20.98
2019-02-17T13:20:47.468Z,20.87
2019-02-17T13:23:37.950Z,20.66
2019-02-17T13:26:21.405Z,20.93
2019-02-17T13:29:04.942Z,20.65
2019-02-17T13:31:55.340Z,20.51
2019-02-17T13:34:38.826Z,20.20
2019-02-17T13:37:30.285Z,20.51
2019-02-17T13:40:34.261Z,20.44
2019-02-17T13:43:24.654Z,20.65
2019-02-17T13:46:07.809Z,20.79
2019-02-17T13:48:58.272Z,21.25
2019-02-17T13:51:41.865Z,21.15
2019-02-17T13:54:32.208Z,20.90
2019-02-17T13:57:14.997Z,20.64
2019-02-17T14:00:06.855Z,20.82
2019-02-17T14:02:49.470Z,20.84
2019-02-17T14:05:39.832Z,20.63
2019-02-17T14:08:23.310Z,20.61
2019-02-17T14:11:13.724Z,20.77
2019-02-17T14:14:04.119Z,20.61
2019-02-17T14:16:47.158Z,20.58
2019-02-17T14:19:37.536Z,20.52
2019-02-17T14:22:20.309Z,20.52
2019-02-17T14:28:39.463Z,20.37
2019-02-17T14:31:29.884Z,20.75
2019-02-17T14:34:20.271Z,21.27
2019-02-17T14:37:03.570Z,21.43
2019-02-17T14:39:53.959Z,21.24
2019-02-17T14:42:36.996Z,21.08
2019-02-17T14:45:27.362Z,21.05
2019-02-17T14:51:32.071Z,20.51
2019-02-17T14:54:14.973Z,20.58
2019-02-17T14:57:05.347Z,20.94
2019-02-17T14:59:48.508Z,21.13
2019-02-17T15:02:38.931Z,20.82
2019-02-17T15:05:22.080Z,20.48
2019-02-17T15:08:12.476Z,20.55
2019-02-17T15:10:55.190Z,20.60
2019-02-17T15:13:45.565Z,20.13
2019-02-17T15:16:29.127Z,20.12
2019-02-17T15:19:19.490Z,19.73
2019-02-17T15:22:02.649Z,19.84
2019-02-17T15:24:53.012Z,19.70
2019-02-17T15:27:36.339Z,19.52
2019-02-17T15:30:26.741Z,19.68
2019-02-17T15:33:10.001Z,19.67
2019-02-17T15:36:00.398Z,19.77
2019-02-17T15:38:42.994Z,19.58
2019-02-17T15:41:33.354Z,19.55
2019-02-17T15:44:15.892Z,19.21
2019-02-17T15:47:06.807Z,19.05
2019-02-17T15:49:49.361Z,19.13
2019-02-17T15:52:39.778Z,19.01
2019-02-17T15:55:22.319Z,18.86
2019-02-17T15:58:12.725Z,18.86
2019-02-17T16:01:16.856Z,18.61
2019-02-17T16:04:28.775Z,18.40
2019-02-17T16:07:31.297Z,18.20
2019-02-17T16:10:21.758Z,18.16
2019-02-17T16:13:04.958Z,18.13
2019-02-17T16:15:55.313Z,18.17
2019-02-17T16:18:38.899Z,18.03
2019-02-17T16:21:29.244Z,17.95
2019-02-17T16:24:12.553Z,17.80
2019-02-17T16:27:02.912Z,17.72
2019-02-17T16:29:45.798Z,17.62
2019-02-17T16:32:36.193Z,17.39
2019-02-17T16:35:19.313Z,17.27
2019-02-17T16:38:09.733Z,17.14
2019-02-17T16:41:12.371Z,17.06
2019-02-17T16:44:03.387Z,16.89
2019-02-17T16:46:45.998Z,16.73
2019-02-17T16:49:36.387Z,16.54
2019-02-17T16:52:26.781Z,16.51
2019-02-17T16:55:17.177Z,16.32
2019-02-17T16:58:01.070Z,16.20
2019-02-17T17:00:51.550Z,16.09
2019-02-17T17:03:41.916Z,15.98
2019-02-17T17:06:32.312Z,15.90
2019-02-17T17:12:13.483Z,15.73
2019-02-17T17:14:56.017Z,15.67
2019-02-17T17:20:54.272Z,15.44
2019-02-17T17:23:44.677Z,15.38
2019-02-17T17:26:27.621Z,15.24
2019-02-17T17:32:54.012Z,15.21
2019-02-17T17:35:37.587Z,15.08
2019-02-17T17:38:28.001Z,15.08
2019-02-17T17:41:30.741Z,15.05
2019-02-17T17:44:25.853Z,15.01
2019-02-17T17:47:11.257Z,14.89
2019-02-17T17:53:31.295Z,14.73
2019-02-17T17:56:21.648Z,14.65
2019-02-17T17:59:05.018Z,14.57
2019-02-17T18:01:55.432Z,14.52
2019-02-17T18:04:45.891Z,14.50
2019-02-17T18:07:28.875Z,14.45
2019-02-17T18:10:19.265Z,14.31
2019-02-17T18:13:02.722Z,14.26
2019-02-17T18:15:53.154Z,14.25
2019-02-17T18:18:35.776Z,14.20
2019-02-17T18:21:26.211Z,14.21
2019-02-17T18:24:09.209Z,14.12
2019-02-17T18:26:59.604Z,14.08
2019-02-17T18:29:42.897Z,14.11
2019-02-17T18:32:33.293Z,14.10
2019-02-17T18:35:20.499Z,14.06
2019-02-17T18:38:08.196Z,14.07
2019-02-17T18:40:58.639Z,14.01
2019-02-17T18:43:41.358Z,14.04
2019-02-17T18:46:31.759Z,13.97
2019-02-17T18:49:33.048Z,13.95
2019-02-17T18:52:23.451Z,13.90
2019-02-17T18:55:07.041Z,13.83
2019-02-17T18:57:57.601Z,13.77
2019-02-17T19:00:40.442Z,13.80
2019-02-17T19:03:30.868Z,13.76
2019-02-17T19:06:13.605Z,13.69
2019-02-17T19:09:05.083Z,13.68
2019-02-17T19:11:48.002Z,13.62
2019-02-17T19:14:38.429Z,13.64
2019-02-17T19:17:21.465Z,13.54
2019-02-17T19:20:14.301Z,13.42
2019-02-17T19:22:56.992Z,13.47
2019-02-17T19:25:47.422Z,13.48
2019-02-17T19:28:31.364Z,13.47
2019-02-17T19:31:21.839Z,13.37
2019-02-17T19:34:05.204Z,13.38
2019-02-17T19:36:55.649Z,13.30
2019-02-17T19:39:39.019Z,13.26
2019-02-17T19:42:29.475Z,13.19
2019-02-17T19:45:12.335Z,13.16
2019-02-17T19:48:21.645Z,13.04
2019-02-17T19:51:04.756Z,13.04
2019-02-17T19:53:55.149Z,13.00
2019-02-17T19:56:39.810Z,13.02
2019-02-17T19:59:50.338Z,13.00
2019-02-17T20:06:03.601Z,12.92
2019-02-17T20:08:46.160Z,12.75
2019-02-17T20:11:36.581Z,12.86
2019-02-17T20:14:19.879Z,12.76
2019-02-17T20:17:02.984Z,12.81
2019-02-17T20:19:53.388Z,12.81
2019-02-17T20:22:36.094Z,12.76
2019-02-17T20:25:26.545Z,12.83
2019-02-17T20:28:09.872Z,12.63
2019-02-17T20:31:00.503Z,12.61
2019-02-17T20:33:43.865Z,12.69
2019-02-17T20:36:26.646Z,12.72
2019-02-17T20:39:17.077Z,12.74
2019-02-17T20:41:59.732Z,12.70
2019-02-17T20:44:50.093Z,12.67
2019-02-17T20:47:40.484Z,12.54
2019-02-17T20:50:30.865Z,12.49
2019-02-17T20:53:13.578Z,12.51
2019-02-17T20:59:13.857Z,12.38
2019-02-17T21:02:04.412Z,12.45
2019-02-17T21:04:47.285Z,12.43
2019-02-17T21:07:37.755Z,12.35
2019-02-17T21:10:20.445Z,12.30
2019-02-17T21:13:03.606Z,12.26
2019-02-17T21:15:54.042Z,12.32
2019-02-17T21:18:37.151Z,12.26
2019-02-17T21:21:27.567Z,12.20
2019-02-17T21:24:10.796Z,12.24
2019-02-17T21:27:01.210Z,12.15
2019-02-17T21:29:43.873Z,12.18
2019-02-17T21:32:34.254Z,12.17
2019-02-17T21:35:17.584Z,12.15
2019-02-17T21:38:07.966Z,11.98
2019-02-17T21:41:11.159Z,12.00
2019-02-17T21:43:54.523Z,12.05
2019-02-17T21:46:45.823Z,12.03
2019-02-17T21:49:29.343Z,12.18
2019-02-17T21:52:19.757Z,12.13
2019-02-17T21:55:03.140Z,12.07
2019-02-17T21:57:53.499Z,12.10
2019-02-17T22:00:36.751Z,12.13
2019-02-17T22:03:27.133Z,12.10
2019-02-17T22:06:10.481Z,12.05
2019-02-17T22:09:00.864Z,12.11
2019-02-17T22:11:46.937Z,12.09
2019-02-17T22:14:37.405Z,12.12
2019-02-17T22:17:20.274Z,12.07
2019-02-17T22:23:40.025Z,11.91
2019-02-17T22:26:30.518Z,11.97
2019-02-17T22:29:20.949Z,11.92
2019-02-17T22:32:04.409Z,11.92
2019-02-17T22:34:54.770Z,11.97
2019-02-17T22:37:38.147Z,11.99
2019-02-17T22:40:28.566Z,11.86
2019-02-17T22:43:11.739Z,11.83
2019-02-17T22:49:30.781Z,11.87
2019-02-17T22:52:21.206Z,11.89
2019-02-17T22:55:04.315Z,11.80
2019-02-17T22:57:54.714Z,11.81
2019-02-17T23:00:57.352Z,11.81
2019-02-17T23:03:47.747Z,11.76
2019-02-17T23:06:30.336Z,11.74
2019-02-17T23:12:30.963Z,11.59
2019-02-17T23:15:21.337Z,11.50
2019-02-17T23:18:03.918Z,11.51
2019-02-17T23:20:54.273Z,11.49
2019-02-17T23:23:37.682Z,11.44
2019-02-17T23:26:28.056Z,11.37
2019-02-17T23:29:10.936Z,11.23
2019-02-17T23:32:01.411Z,11.21
2019-02-17T23:34:44.221Z,11.20
2019-02-17T23:37:34.544Z,11.03
2019-02-17T23:40:17.141Z,11.00
2019-02-17T23:43:07.565Z,10.91
2019-02-17T23:45:50.731Z,10.79
2019-02-17T23:48:34.230Z,10.83
2019-02-17T23:51:24.685Z,10.81
2019-02-17T23:54:07.836Z,10.78
2019-02-17T23:56:58.203Z,10.73
2019-02-17T23:59:41.345Z,10.64
